Time;durP1;ratioP1;P1;durP2;ratioP2;P2;SDS_P1;SDS_P2;PMS_P1;PMS_P2;Temp;Humidity;BMP_temperature;BMP_pressure;BME280_temperature;BME280_humidity;BME280_pressure;Samples;Min_cycle;Max_cycle;Signal;HPM_P1;HPM_P2
2022/05/12 00:00:49;;;;;;;9.02;2.30;;;12.00;99.90;;;;;;4952466;29;20387;-63
2022/05/12 00:03:16;;;;;;;9.98;2.50;;;11.90;99.90;;;;;;4953533;28;20050;-63
2022/05/12 00:05:42;;;;;;;7.40;2.15;;;11.80;99.90;;;;;;4945207;28;20113;-63
2022/05/12 00:08:08;;;;;;;8.70;2.30;;;11.80;99.90;;;;;;4952955;28;20573;-63
2022/05/12 00:10:33;;;;;;;6.07;2.00;;;11.70;99.90;;;;;;4953644;28;20035;-63
2022/05/12 00:12:59;;;;;;;5.13;1.80;;;11.60;99.90;;;;;;4946383;28;20473;-63
2022/05/12 00:15:27;;;;;;;5.60;2.17;;;11.60;99.90;;;;;;4952930;28;20085;-63
2022/05/12 00:17:53;;;;;;;7.10;2.00;;;11.50;99.90;;;;;;4953387;28;20039;-63
2022/05/12 00:20:21;;;;;;;7.53;2.10;;;11.40;99.90;;;;;;4953706;28;20125;-63
2022/05/12 00:22:47;;;;;;;5.25;2.00;;;11.40;99.90;;;;;;4938126;28;20044;-63
2022/05/12 00:25:18;;;;;;;8.07;2.10;;;11.40;99.90;;;;;;4947897;28;20039;-63
2022/05/12 00:27:44;;;;;;;7.75;2.10;;;11.30;99.90;;;;;;4953430;28;20047;-63
2022/05/12 00:30:11;;;;;;;6.03;2.00;;;11.30;99.90;;;;;;4936183;28;20106;-63
2022/05/12 00:32:42;;;;;;;8.60;2.33;;;11.30;99.90;;;;;;4949372;29;20047;-63
2022/05/12 00:35:09;;;;;;;7.75;2.00;;;11.20;99.90;;;;;;4953423;28;20489;-63
2022/05/12 00:37:35;;;;;;;5.28;1.90;;;11.20;99.90;;;;;;4946835;28;20495;-63
2022/05/12 00:40:00;;;;;;;5.07;1.90;;;11.20;99.90;;;;;;4952574;28;20059;-63
2022/05/12 00:42:26;;;;;;;6.35;2.33;;;11.10;99.90;;;;;;4953178;29;20040;-63
2022/05/12 00:44:52;;;;;;;5.78;2.10;;;11.10;99.90;;;;;;4944735;28;20119;-63
2022/05/12 00:47:17;;;;;;;8.35;2.78;;;11.10;99.90;;;;;;4946478;29;20502;-63
2022/05/12 00:49:46;;;;;;;6.68;1.83;;;11.10;99.90;;;;;;4953101;28;20413;-63
2022/05/12 00:52:26;;;;;;;6.45;2.00;;;11.10;99.90;;;;;;4951402;28;20046;-63
2022/05/12 00:55:04;;;;;;;6.88;2.10;;;11.10;99.90;;;;;;4941646;29;20035;-63
2022/05/12 00:57:35;;;;;;;4.13;1.90;;;11.00;99.90;;;;;;4952794;28;20039;-63
2022/05/12 01:00:05;;;;;;;5.45;1.90;;;11.00;99.90;;;;;;4953133;28;20043;-63
2022/05/12 01:02:32;;;;;;;8.45;2.10;;;10.90;99.90;;;;;;4944607;28;20509;-63
2022/05/12 01:04:58;;;;;;;6.30;1.92;;;10.90;99.90;;;;;;4949872;28;20171;-63
2022/05/12 01:07:24;;;;;;;4.30;1.90;;;10.90;99.90;;;;;;4953035;28;20122;-63
2022/05/12 01:09:50;;;;;;;5.05;1.85;;;10.80;99.90;;;;;;4949493;28;20058;-63
2022/05/12 01:12:15;;;;;;;7.13;2.08;;;10.80;99.90;;;;;;4934771;29;20479;-63
2022/05/12 01:14:41;;;;;;;5.82;2.03;;;10.80;99.90;;;;;;4948527;28;20487;-63
2022/05/12 01:17:07;;;;;;;6.40;2.22;;;10.80;99.90;;;;;;4953250;28;20047;-63
2022/05/12 01:19:39;;;;;;;6.53;1.98;;;10.70;99.90;;;;;;4950729;28;20129;-63
2022/05/12 01:22:09;;;;;;;6.28;2.13;;;10.70;99.90;;;;;;4953764;29;20507;-63
2022/05/12 01:24:45;;;;;;;5.38;2.20;;;10.60;99.90;;;;;;4954720;29;20051;-63
2022/05/12 01:27:22;;;;;;;7.28;2.67;;;10.50;99.90;;;;;;4956712;28;20121;-63
2022/05/12 01:29:53;;;;;;;6.82;2.38;;;10.50;99.90;;;;;;4948470;29;20047;-63
2022/05/12 01:32:20;;;;;;;5.20;1.92;;;10.40;99.90;;;;;;4954699;28;20043;-63
2022/05/12 01:34:47;;;;;;;2.47;1.67;;;10.30;99.90;;;;;;4951674;28;20051;-63
2022/05/12 01:37:12;;;;;;;8.57;2.33;;;10.20;99.90;;;;;;4949554;28;20510;-63
2022/05/12 01:39:39;;;;;;;6.53;2.40;;;10.20;99.90;;;;;;4953086;29;20039;-63
2022/05/12 01:42:07;;;;;;;6.57;2.10;;;10.10;99.90;;;;;;4956007;28;20126;-63
2022/05/12 01:44:33;;;;;;;4.70;2.10;;;10.10;99.90;;;;;;4951535;28;20074;-63
2022/05/12 01:46:59;;;;;;;4.22;2.28;;;10.00;99.90;;;;;;4955260;29;20102;-62
2022/05/12 01:49:25;;;;;;;6.93;2.40;;;10.00;99.90;;;;;;4956007;28;20438;-63
2022/05/12 01:51:55;;;;;;;10.52;2.92;;;10.00;99.90;;;;;;4940885;28;20035;-63
2022/05/12 01:54:21;;;;;;;6.30;2.75;;;9.90;99.90;;;;;;4947359;29;20074;-63
2022/05/12 01:56:46;;;;;;;10.20;2.97;;;9.90;99.90;;;;;;4955762;28;20073;-63
2022/05/12 01:59:12;;;;;;;7.78;2.80;;;9.90;99.90;;;;;;4951652;28;20765;-63
2022/05/12 02:01:38;;;;;;;7.72;3.38;;;9.80;99.90;;;;;;4940301;29;20115;-63
2022/05/12 02:04:05;;;;;;;3.83;2.60;;;9.80;99.90;;;;;;4955119;28;20049;-63
2022/05/12 02:06:31;;;;;;;4.88;2.60;;;9.80;99.90;;;;;;4955548;28;20046;-63
2022/05/12 02:08:57;;;;;;;8.77;3.33;;;9.70;99.90;;;;;;4947159;28;20039;-63
2022/05/12 02:11:23;;;;;;;10.00;3.65;;;9.70;99.90;;;;;;4955057;29;20148;-63
2022/05/12 02:13:49;;;;;;;4.88;2.50;;;9.60;99.90;;;;;;4955156;28;20114;-63
2022/05/12 02:16:14;;;;;;;5.80;2.85;;;9.50;99.90;;;;;;4952447;28;20706;-63
2022/05/12 02:18:43;;;;;;;6.10;2.80;;;9.50;99.90;;;;;;4946311;29;20043;-63
2022/05/12 02:21:08;;;;;;;7.10;3.08;;;9.50;99.90;;;;;;4954741;28;20062;-63
2022/05/12 02:23:34;;;;;;;7.43;2.80;;;9.40;99.90;;;;;;4955575;28;20043;-63
2022/05/12 02:26:00;;;;;;;5.40;2.67;;;9.40;99.90;;;;;;4939175;28;20071;-63
2022/05/12 02:28:25;;;;;;;6.90;2.80;;;9.40;99.90;;;;;;4946958;28;20058;-63
2022/05/12 02:30:51;;;;;;;4.25;2.65;;;9.40;99.90;;;;;;4954655;28;20031;-63
2022/05/12 02:33:16;;;;;;;8.50;3.03;;;9.30;99.90;;;;;;4954887;28;20043;-63
2022/05/12 02:35:42;;;;;;;4.50;2.70;;;9.30;99.90;;;;;;4940633;28;20076;-63
2022/05/12 02:38:10;;;;;;;5.20;3.40;;;9.30;99.90;;;;;;4951466;28;20058;-63
2022/05/12 02:40:36;;;;;;;3.85;2.63;;;9.20;99.90;;;;;;4955157;28;20038;-63
2022/05/12 02:43:01;;;;;;;8.10;3.38;;;9.20;99.90;;;;;;4943889;28;20050;-63
2022/05/12 02:45:28;;;;;;;8.25;3.10;;;9.10;99.90;;;;;;4951983;28;20047;-62
2022/05/12 02:47:55;;;;;;;8.82;3.13;;;9.10;99.90;;;;;;4954670;28;20122;-63
2022/05/12 02:50:21;;;;;;;5.40;3.00;;;9.10;99.90;;;;;;4954604;28;20047;-63
2022/05/12 02:52:47;;;;;;;6.68;2.90;;;9.20;99.90;;;;;;4943397;29;20039;-62
2022/05/12 02:55:13;;;;;;;8.27;3.17;;;9.10;99.90;;;;;;4954561;28;20041;-63
2022/05/12 02:57:39;;;;;;;5.38;3.05;;;9.10;99.90;;;;;;4954695;28;20379;-63
2022/05/12 03:00:08;;;;;;;5.88;2.72;;;9.20;99.90;;;;;;4941378;28;20046;-62
2022/05/12 03:02:33;;;;;;;10.35;2.95;;;9.20;99.90;;;;;;4950562;29;20039;-63
2022/05/12 03:04:59;;;;;;;9.15;3.13;;;9.10;99.90;;;;;;4954490;29;20102;-63
2022/05/12 03:07:24;;;;;;;7.50;3.03;;;9.10;99.90;;;;;;4953882;28;20035;-63
2022/05/12 03:09:50;;;;;;;7.47;3.20;;;9.10;99.90;;;;;;4951636;29;20049;-62
2022/05/12 03:12:15;;;;;;;8.50;3.00;;;9.10;99.90;;;;;;4953969;28;20074;-63
2022/05/12 03:14:41;;;;;;;6.60;2.67;;;9.10;99.90;;;;;;4950150;28;20032;-63
2022/05/12 03:17:07;;;;;;;6.32;3.10;;;9.10;99.90;;;;;;4948845;29;20489;-63
2022/05/12 03:19:32;;;;;;;10.50;3.00;;;9.10;99.90;;;;;;4950298;29;20078;-63
2022/05/12 03:21:59;;;;;;;12.13;3.08;;;9.00;99.90;;;;;;4954161;29;20051;-63
2022/05/12 03:24:24;;;;;;;9.23;3.40;;;9.00;99.90;;;;;;4943881;28;20529;-63
2022/05/12 03:26:50;;;;;;;7.18;3.20;;;9.00;99.90;;;;;;4936076;29;20074;-63
2022/05/12 03:29:16;;;;;;;7.70;3.10;;;8.90;99.90;;;;;;4948654;28;20043;-63
2022/05/12 03:31:42;;;;;;;9.18;3.28;;;8.90;99.90;;;;;;4949448;29;20073;-63
2022/05/12 03:34:08;;;;;;;8.40;3.20;;;8.80;99.90;;;;;;4946071;29;20050;-63
2022/05/12 03:36:39;;;;;;;8.10;3.35;;;8.80;99.90;;;;;;4953877;28;20063;-63
2022/05/12 03:39:05;;;;;;;10.38;3.40;;;8.80;99.90;;;;;;4954064;28;20094;-63
2022/05/12 03:41:31;;;;;;;5.53;3.38;;;8.70;99.90;;;;;;4947364;28;20040;-63
2022/05/12 03:46:41;;;;;;;6.93;3.22;;;8.60;99.90;;;;;;4953550;28;20051;-63
2022/05/12 03:49:07;;;;;;;9.77;3.70;;;8.60;99.90;;;;;;4942920;28;20388;-63
2022/05/12 03:51:33;;;;;;;10.18;4.55;;;8.60;99.90;;;;;;4944414;29;20035;-63
2022/05/12 03:53:59;;;;;;;13.07;4.20;;;8.60;99.90;;;;;;4953264;28;20071;-63
2022/05/12 03:56:24;;;;;;;10.77;3.83;;;8.60;99.90;;;;;;4942993;28;20123;-63
2022/05/12 03:58:50;;;;;;;15.68;4.20;;;8.60;99.90;;;;;;4950487;29;20043;-63
2022/05/12 04:01:16;;;;;;;10.77;4.05;;;8.60;99.90;;;;;;4953272;29;20098;-63
2022/05/12 04:03:41;;;;;;;14.73;3.95;;;8.60;99.90;;;;;;4952424;28;20051;-63
2022/05/12 04:06:07;;;;;;;11.38;4.60;;;8.60;99.90;;;;;;4942057;28;20178;-63
2022/05/12 04:08:33;;;;;;;6.85;4.03;;;8.50;99.90;;;;;;4945247;28;20047;-63
2022/05/12 04:11:00;;;;;;;11.48;3.83;;;8.60;99.90;;;;;;4953311;28;20505;-64
2022/05/12 04:13:26;;;;;;;11.60;4.15;;;8.60;99.90;;;;;;4948007;28;20043;-63
2022/05/12 04:15:51;;;;;;;18.77;4.60;;;8.60;99.90;;;;;;4951723;29;20086;-63
2022/05/12 04:18:18;;;;;;;14.85;4.43;;;8.70;99.90;;;;;;4950736;29;20046;-63
2022/05/12 04:20:43;;;;;;;17.98;4.60;;;8.70;99.90;;;;;;4942770;28;20047;-63
2022/05/12 04:23:09;;;;;;;15.07;4.70;;;8.80;99.90;;;;;;4935288;28;20035;-63
2022/05/12 04:25:35;;;;;;;13.20;4.82;;;8.80;99.90;;;;;;4949244;28;20069;-63
2022/05/12 04:28:01;;;;;;;14.15;5.97;;;8.90;99.90;;;;;;4951834;29;20039;-63
2022/05/12 04:30:27;;;;;;;16.98;5.80;;;9.00;99.90;;;;;;4943561;28;20047;-63
2022/05/12 04:32:53;;;;;;;16.88;7.25;;;9.10;99.90;;;;;;4950918;29;20406;-64
2022/05/12 04:35:20;;;;;;;15.85;5.75;;;9.10;99.90;;;;;;4953236;29;20070;-64
2022/05/12 04:37:48;;;;;;;18.65;6.85;;;9.20;99.90;;;;;;4948985;28;20058;-63
2022/05/12 04:40:20;;;;;;;13.63;6.13;;;9.30;99.90;;;;;;4936434;29;20110;-63
2022/05/12 04:42:48;;;;;;;16.77;6.88;;;9.30;99.90;;;;;;4950349;29;20073;-63
2022/05/12 04:45:14;;;;;;;18.13;7.20;;;9.40;99.90;;;;;;4953658;28;20043;-64
2022/05/12 04:47:41;;;;;;;18.55;6.78;;;9.40;99.90;;;;;;4941849;28;20541;-62
2022/05/12 04:50:09;;;;;;;17.02;6.82;;;9.50;99.90;;;;;;4947026;28;20119;-62
2022/05/12 04:52:35;;;;;;;18.23;7.90;;;9.60;99.90;;;;;;4944423;28;20054;-62
2022/05/12 04:55:00;;;;;;;20.30;8.00;;;9.60;99.90;;;;;;4937878;29;20044;-62
2022/05/12 04:57:26;;;;;;;13.85;7.57;;;9.70;99.90;;;;;;4941452;29;20126;-62
2022/05/12 04:59:55;;;;;;;16.05;7.55;;;9.70;99.90;;;;;;4947991;28;20118;-62
2022/05/12 05:02:22;;;;;;;18.05;7.65;;;9.80;99.90;;;;;;4941725;28;20039;-62
2022/05/12 05:04:48;;;;;;;25.58;8.55;;;9.80;99.90;;;;;;4952260;28;20043;-62
2022/05/12 05:07:13;;;;;;;20.63;8.07;;;9.90;99.90;;;;;;4957815;28;20038;-63
2022/05/12 05:09:41;;;;;;;19.85;8.63;;;10.00;99.90;;;;;;4949048;28;20044;-62
2022/05/12 05:12:07;;;;;;;16.77;7.82;;;10.00;99.90;;;;;;4946135;28;20782;-62
2022/05/12 05:14:32;;;;;;;19.02;8.35;;;10.10;99.90;;;;;;4946496;28;20055;-63
2022/05/12 05:16:59;;;;;;;18.90;7.72;;;10.10;99.90;;;;;;4945709;28;20557;-63
2022/05/12 05:19:25;;;;;;;16.88;8.52;;;10.20;99.90;;;;;;4939605;28;20047;-63
2022/05/12 05:21:51;;;;;;;17.48;8.25;;;10.30;99.90;;;;;;4946240;28;20051;-63
2022/05/12 05:24:16;;;;;;;17.88;7.82;;;10.30;99.90;;;;;;4951808;28;20059;-62
2022/05/12 05:26:42;;;;;;;20.77;8.60;;;10.40;99.90;;;;;;4967608;28;20039;-62
2022/05/12 05:29:10;;;;;;;19.83;8.43;;;10.50;99.90;;;;;;4955413;28;20059;-63
2022/05/12 05:31:37;;;;;;;18.70;9.48;;;10.60;99.90;;;;;;4951672;28;20055;-62
2022/05/12 05:34:03;;;;;;;18.98;8.93;;;10.70;99.90;;;;;;4954960;28;20043;-62
2022/05/12 05:36:28;;;;;;;21.00;9.25;;;10.80;99.90;;;;;;4948875;28;20044;-62
2022/05/12 05:38:54;;;;;;;18.17;7.32;;;10.80;99.90;;;;;;4949091;28;20094;-63
2022/05/12 05:41:19;;;;;;;21.65;8.65;;;10.90;99.90;;;;;;4969227;28;20180;-62
2022/05/12 05:43:45;;;;;;;17.17;8.48;;;11.00;99.90;;;;;;4953220;28;20050;-62
2022/05/12 05:46:10;;;;;;;18.05;9.25;;;11.00;99.90;;;;;;4951230;28;20042;-63
2022/05/12 05:48:36;;;;;;;30.08;10.52;;;11.10;99.90;;;;;;4945881;28;20557;-63
2022/05/12 05:53:46;;;;;;;18.27;9.93;;;11.30;99.90;;;;;;4940148;28;20562;-63
2022/05/12 05:56:15;;;;;;;24.05;10.88;;;11.40;99.90;;;;;;4956712;28;20122;-63
2022/05/12 05:58:43;;;;;;;26.73;10.35;;;11.50;99.90;;;;;;4960406;28;20071;-63
2022/05/12 06:01:08;;;;;;;20.85;10.00;;;11.60;99.90;;;;;;4953775;28;20134;-63
2022/05/12 06:03:34;;;;;;;23.83;11.05;;;11.60;99.90;;;;;;4946891;28;20131;-63
2022/05/12 06:06:01;;;;;;;23.00;10.95;;;11.70;99.90;;;;;;4971167;28;20167;-63
2022/05/12 06:08:26;;;;;;;21.10;10.55;;;11.80;99.90;;;;;;4960360;28;20079;-63
2022/05/12 06:10:52;;;;;;;23.85;11.48;;;11.80;99.90;;;;;;4934325;28;20058;-63
2022/05/12 06:13:18;;;;;;;25.55;10.32;;;11.90;99.90;;;;;;4941952;28;20050;-63
2022/05/12 06:15:43;;;;;;;22.98;11.43;;;11.90;99.90;;;;;;4951512;28;20074;-63
2022/05/12 06:18:17;;;;;;;23.38;11.50;;;12.00;99.90;;;;;;4949594;28;22550;-63
2022/05/12 06:20:44;;;;;;;25.02;10.73;;;12.10;99.90;;;;;;4947188;28;20036;-63
2022/05/12 06:23:11;;;;;;;19.80;11.52;;;12.10;99.90;;;;;;4958366;28;20046;-63
2022/05/12 06:25:38;;;;;;;20.98;10.82;;;12.20;99.90;;;;;;4965848;28;20066;-63
2022/05/12 06:28:04;;;;;;;24.92;11.00;;;12.30;99.90;;;;;;4954413;28;20082;-63
2022/05/12 06:30:30;;;;;;;23.23;10.77;;;12.30;99.90;;;;;;4962950;28;20094;-63
2022/05/12 06:32:56;;;;;;;20.83;10.57;;;12.40;99.90;;;;;;4959845;28;20042;-63
2022/05/12 06:35:24;;;;;;;22.00;10.20;;;12.50;99.90;;;;;;4935140;28;20044;-63
2022/05/12 06:37:50;;;;;;;18.08;9.35;;;12.60;99.90;;;;;;4948934;28;20094;-64
2022/05/12 06:40:16;;;;;;;20.30;9.80;;;12.70;99.90;;;;;;4947098;28;20122;-64
2022/05/12 06:42:43;;;;;;;18.25;10.07;;;12.70;99.90;;;;;;4953354;28;20596;-64
2022/05/12 06:45:10;;;;;;;19.48;9.18;;;12.80;99.90;;;;;;4956696;28;20803;-64
2022/05/12 06:47:36;;;;;;;16.90;8.57;;;12.90;99.90;;;;;;4949757;28;20031;-64
2022/05/12 06:50:03;;;;;;;12.38;7.60;;;12.90;99.90;;;;;;4968627;28;20039;-64
2022/05/12 06:52:29;;;;;;;17.38;8.95;;;13.00;99.90;;;;;;4950840;28;20182;-64
2022/05/12 06:54:55;;;;;;;20.83;8.75;;;13.00;99.90;;;;;;4960325;28;20071;-64
2022/05/12 06:57:23;;;;;;;22.25;8.82;;;13.10;99.90;;;;;;4971073;28;20039;-64
2022/05/12 06:59:49;;;;;;;16.05;8.02;;;13.20;99.90;;;;;;4959636;28;20069;-63
2022/05/12 07:02:15;;;;;;;12.40;7.45;;;13.20;99.90;;;;;;4942361;28;20042;-63
2022/05/12 07:04:41;;;;;;;19.95;8.20;;;13.30;99.90;;;;;;4952314;28;20047;-63
2022/05/12 07:07:07;;;;;;;18.75;8.27;;;13.50;99.90;;;;;;4952129;28;20414;-63
2022/05/12 07:09:33;;;;;;;14.50;7.57;;;13.60;99.90;;;;;;4954123;28;20458;-63
2022/05/12 07:11:59;;;;;;;16.15;7.53;;;13.60;99.90;;;;;;4966474;28;20039;-63
2022/05/12 07:14:24;;;;;;;13.40;6.97;;;13.80;99.90;;;;;;4959102;28;20039;-63
2022/05/12 07:16:50;;;;;;;16.27;5.75;;;13.80;99.90;;;;;;4956677;28;20043;-63
2022/05/12 07:19:16;;;;;;;18.42;7.93;;;13.80;99.90;;;;;;4973399;28;20401;-63
2022/05/12 07:27:11;;;;;;;12.35;5.32;;;14.00;99.90;;;;;;4949551;28;20043;-62
2022/05/12 07:29:37;;;;;;;12.57;5.72;;;14.10;99.90;;;;;;4962969;28;20054;-64
2022/05/12 07:32:04;;;;;;;11.90;6.25;;;14.20;99.90;;;;;;4953954;28;20082;-63
2022/05/12 07:34:30;;;;;;;12.82;6.95;;;14.20;99.90;;;;;;4949784;28;20032;-63
2022/05/12 07:36:56;;;;;;;13.15;6.30;;;14.30;99.90;;;;;;4951583;28;20121;-63
2022/05/12 07:39:27;;;;;;;12.32;5.65;;;14.40;99.90;;;;;;4969538;28;20038;-64
2022/05/12 07:41:53;;;;;;;11.38;6.07;;;14.40;99.90;;;;;;4953398;28;20046;-63
2022/05/12 07:44:20;;;;;;;14.45;5.90;;;14.50;99.90;;;;;;4951733;28;20053;-70
2022/05/12 07:46:47;;;;;;;10.07;5.47;;;14.50;99.90;;;;;;4963953;28;20046;-64
2022/05/12 07:49:13;;;;;;;14.52;6.80;;;14.60;99.90;;;;;;4957816;28;20046;-65
2022/05/12 07:51:39;;;;;;;11.13;5.90;;;14.60;99.90;;;;;;4954679;28;20086;-63
2022/05/12 07:54:05;;;;;;;13.57;6.78;;;14.60;99.90;;;;;;4944470;28;20042;-61
2022/05/12 07:56:31;;;;;;;13.80;6.45;;;14.70;99.90;;;;;;4951108;28;20047;-66
2022/05/12 07:58:59;;;;;;;12.25;6.00;;;14.90;99.90;;;;;;4946574;28;20085;-63
2022/05/12 08:01:26;;;;;;;12.48;6.13;;;14.90;99.90;;;;;;4953637;28;20126;-63
2022/05/12 08:03:53;;;;;;;11.07;6.07;;;15.10;99.90;;;;;;4953155;28;20044;-63
2022/05/12 08:06:20;;;;;;;11.43;6.60;;;15.20;99.90;;;;;;4962858;28;20082;-63
2022/05/12 08:08:48;;;;;;;12.98;5.72;;;15.20;99.90;;;;;;4950209;28;20043;-63
2022/05/12 08:11:14;;;;;;;14.00;5.28;;;15.20;99.90;;;;;;4957176;28;20035;-63
2022/05/12 08:13:42;;;;;;;10.80;5.90;;;15.20;99.90;;;;;;4950148;28;20028;-63
2022/05/12 08:16:08;;;;;;;12.18;5.32;;;15.10;99.90;;;;;;4932955;28;20058;-63
2022/05/12 08:18:35;;;;;;;12.30;5.70;;;15.20;99.90;;;;;;4950822;28;20098;-63
2022/05/12 08:21:01;;;;;;;8.48;4.07;;;15.40;99.90;;;;;;4937607;28;20047;-63
2022/05/12 08:23:27;;;;;;;10.98;5.78;;;15.50;99.90;;;;;;4956605;23;20051;-63
2022/05/12 08:25:53;;;;;;;8.27;4.60;;;15.50;99.90;;;;;;4942154;28;20043;-63
2022/05/12 08:28:23;;;;;;;13.70;4.95;;;15.60;99.90;;;;;;4947741;28;20446;-63
2022/05/12 08:30:50;;;;;;;11.40;4.20;;;15.70;99.90;;;;;;4931447;29;20037;-63
2022/05/12 08:33:17;;;;;;;7.22;4.50;;;15.80;99.90;;;;;;4935965;28;20086;-63
2022/05/12 08:35:43;;;;;;;9.43;4.50;;;15.80;99.90;;;;;;4946124;28;20103;-63
2022/05/12 08:38:10;;;;;;;10.38;5.38;;;15.80;99.90;;;;;;4935809;28;20078;-63
2022/05/12 08:40:57;;;;;;;12.82;5.28;;;15.80;99.90;;;;;;4952692;29;20051;-63
2022/05/12 08:43:29;;;;;;;11.00;4.90;;;16.00;99.90;;;;;;4941922;28;20035;-63
2022/05/12 08:46:02;;;;;;;9.23;4.50;;;16.20;99.90;;;;;;4928163;29;20044;-63
2022/05/12 08:48:28;;;;;;;9.32;4.72;;;16.30;99.90;;;;;;4926405;29;20043;-62
2022/05/12 08:50:55;;;;;;;10.55;4.97;;;16.40;99.90;;;;;;4945772;29;20055;-65
2022/05/12 08:53:26;;;;;;;10.73;4.90;;;16.50;99.90;;;;;;4952436;28;20054;-66
2022/05/12 08:55:59;;;;;;;9.45;4.28;;;16.70;99.90;;;;;;4952232;29;20043;-64
2022/05/12 08:58:35;;;;;;;8.43;4.30;;;16.70;99.90;;;;;;4933927;28;20126;-64
2022/05/12 09:01:15;;;;;;;8.43;4.13;;;16.50;99.90;;;;;;4948653;29;20047;-63
2022/05/12 09:04:11;;;;;;;6.82;4.07;;;16.40;99.90;;;;;;4930840;28;20067;-63
2022/05/12 09:07:01;;;;;;;11.38;4.50;;;16.30;99.90;;;;;;4933637;29;20066;-64
2022/05/12 09:09:38;;;;;;;9.77;4.78;;;16.30;99.90;;;;;;4950057;29;20081;-63
2022/05/12 09:12:22;;;;;;;8.55;4.70;;;16.30;99.90;;;;;;4943383;28;20406;-63
2022/05/12 09:15:05;;;;;;;15.75;4.07;;;16.40;99.90;;;;;;4939983;29;20046;-63
2022/05/12 09:18:02;;;;;;;7.50;3.10;;;16.40;99.90;;;;;;4924729;29;20513;-65
2022/05/12 09:20:34;;;;;;;8.27;3.88;;;16.10;99.90;;;;;;4936708;29;20614;-64
2022/05/12 09:23:01;;;;;;;6.80;3.70;;;16.00;99.90;;;;;;4928008;29;20054;-65
2022/05/12 09:25:42;;;;;;;7.70;4.30;;;16.30;99.90;;;;;;4938649;29;20051;-66
2022/05/12 09:28:27;;;;;;;8.93;3.10;;;16.50;99.90;;;;;;4943631;29;20046;-65
2022/05/12 09:30:59;;;;;;;10.32;3.90;;;16.40;99.90;;;;;;4947801;29;20043;-65
2022/05/12 09:33:34;;;;;;;6.20;3.45;;;16.40;99.90;;;;;;4917778;28;20443;-66
2022/05/12 09:36:07;;;;;;;6.05;2.97;;;16.50;99.90;;;;;;4944221;29;20043;-65
2022/05/12 09:38:46;;;;;;;10.52;3.30;;;16.70;99.90;;;;;;4927139;29;20051;-65
2022/05/12 09:41:37;;;;;;;7.95;3.45;;;17.00;99.90;;;;;;4935711;29;20039;-66
2022/05/12 09:44:23;;;;;;;7.45;2.90;;;17.20;99.90;;;;;;4942625;29;20050;-66
2022/05/12 09:47:11;;;;;;;6.28;2.80;;;17.30;99.90;;;;;;4932712;29;20424;-66
2022/05/12 09:49:38;;;;;;;8.23;2.70;;;17.40;99.90;;;;;;4951520;29;20039;-65
2022/05/12 09:52:35;;;;;;;8.48;2.60;;;17.40;99.90;;;;;;4950325;29;20449;-66
2022/05/12 09:55:15;;;;;;;9.10;3.00;;;17.10;99.90;;;;;;4926484;29;20102;-65
2022/05/12 09:57:59;;;;;;;7.03;3.10;;;16.90;99.90;;;;;;4933986;29;20039;-67
2022/05/12 10:00:54;;;;;;;8.82;3.08;;;16.50;99.90;;;;;;4925750;29;20040;-66
2022/05/12 10:09:20;;;;;;;9.77;3.30;;;16.60;99.90;;;;;;4943568;29;20043;-64
2022/05/12 10:12:13;;;;;;;9.35;3.75;;;17.00;99.90;;;;;;4936435;28;20048;-65
2022/05/12 10:14:58;;;;;;;6.88;3.17;;;17.30;99.90;;;;;;4934233;29;20035;-65
2022/05/12 10:17:30;;;;;;;6.90;3.42;;;17.30;98.90;;;;;;4942962;29;20035;-65
2022/05/12 10:20:04;;;;;;;5.95;2.30;;;17.60;99.90;;;;;;4937057;29;20715;-65
2022/05/12 10:22:42;;;;;;;7.25;2.63;;;17.60;99.00;;;;;;4930345;29;20078;-65
2022/05/12 10:25:25;;;;;;;7.80;2.78;;;17.30;97.90;;;;;;4944189;29;20043;-65
2022/05/12 10:28:15;;;;;;;8.05;3.00;;;17.30;98.90;;;;;;4938420;29;20491;-64
2022/05/12 10:31:11;;;;;;;5.18;2.08;;;17.60;99.90;;;;;;4934265;29;20051;-64
2022/05/12 10:34:03;;;;;;;5.10;2.60;;;17.50;95.80;;;;;;4932467;28;20043;-63
2022/05/12 10:37:03;;;;;;;6.05;2.30;;;17.60;97.10;;;;;;4953459;28;20091;-64
2022/05/12 10:39:50;;;;;;;4.90;2.50;;;17.70;95.20;;;;;;4937947;29;20478;-64
2022/05/12 10:42:37;;;;;;;10.05;3.20;;;17.90;96.90;;;;;;4929392;29;20051;-63
2022/05/12 10:45:41;;;;;;;5.07;3.00;;;18.10;96.60;;;;;;4926524;29;20051;-64
2022/05/12 10:48:39;;;;;;;4.63;2.47;;;18.20;97.30;;;;;;4927363;29;20055;-64
2022/05/12 10:51:27;;;;;;;5.20;2.80;;;18.10;96.90;;;;;;4924136;29;20111;-64
2022/05/12 10:54:12;;;;;;;7.22;3.00;;;17.60;96.50;;;;;;4928560;29;20058;-63
2022/05/12 10:57:05;;;;;;;9.00;3.10;;;17.50;97.80;;;;;;4920337;29;20089;-64
2022/05/12 10:59:52;;;;;;;5.47;2.60;;;17.80;97.80;;;;;;4934500;29;20079;-64
2022/05/12 11:02:39;;;;;;;7.03;2.88;;;17.90;95.80;;;;;;4931073;29;20071;-64
2022/05/12 11:05:24;;;;;;;5.63;2.70;;;18.10;96.20;;;;;;4928936;29;20052;-64
2022/05/12 11:07:55;;;;;;;5.28;2.70;;;18.40;96.30;;;;;;4934373;29;20051;-64
2022/05/12 11:10:48;;;;;;;7.38;2.80;;;18.50;95.80;;;;;;4929089;29;20147;-64
2022/05/12 11:13:23;;;;;;;6.88;3.20;;;18.50;93.80;;;;;;4938761;28;20108;-64
2022/05/12 11:16:03;;;;;;;7.60;3.42;;;18.70;95.10;;;;;;4939012;29;20047;-64
2022/05/12 11:18:50;;;;;;;7.90;3.00;;;18.90;94.80;;;;;;4934201;29;20513;-64
2022/05/12 11:21:29;;;;;;;5.70;2.95;;;19.10;93.50;;;;;;4936333;29;20069;-64
2022/05/12 11:24:21;;;;;;;6.57;3.30;;;19.10;90.60;;;;;;4934467;28;20042;-63
2022/05/12 11:26:50;;;;;;;8.05;3.50;;;19.10;90.20;;;;;;4931688;29;20048;-65
2022/05/12 11:32:30;;;;;;;6.90;3.70;;;19.30;92.40;;;;;;4945871;28;20150;-64
2022/05/12 11:35:18;;;;;;;4.85;3.00;;;19.30;92.20;;;;;;4935225;29;20051;-65
2022/05/12 11:37:44;;;;;;;6.75;2.63;;;18.80;91.30;;;;;;4922564;29;20059;-65
2022/05/12 11:40:13;;;;;;;7.65;3.70;;;18.40;91.40;;;;;;4933732;29;20541;-65
2022/05/12 11:45:50;;;;;;;10.80;4.30;;;18.70;87.10;;;;;;4926765;29;20048;-65
2022/05/12 11:48:35;;;;;;;8.07;3.63;;;18.70;93.20;;;;;;4925574;29;20094;-65
2022/05/12 11:51:28;;;;;;;4.88;3.10;;;18.40;91.30;;;;;;4941397;29;20043;-64
2022/05/12 11:53:57;;;;;;;6.38;3.60;;;18.00;84.70;;;;;;4935434;28;20518;-65
2022/05/12 11:56:48;;;;;;;8.52;3.17;;;18.00;91.90;;;;;;4946736;28;20159;-65
2022/05/12 11:59:24;;;;;;;6.72;3.30;;;18.10;90.70;;;;;;4943183;28;20615;-65
2022/05/12 12:01:57;;;;;;;7.00;3.22;;;18.40;91.60;;;;;;4938400;28;20243;-65
2022/05/12 12:04:50;;;;;;;5.70;3.25;;;18.30;89.90;;;;;;4930531;29;20160;-64
2022/05/12 12:07:31;;;;;;;6.57;3.20;;;18.40;90.50;;;;;;4938393;29;20047;-64
2022/05/12 12:10:24;;;;;;;9.95;3.65;;;18.60;89.50;;;;;;4922211;29;20042;-64
2022/05/12 12:13:02;;;;;;;7.00;3.00;;;19.00;91.00;;;;;;4928719;29;20036;-64
2022/05/12 12:15:30;;;;;;;5.70;2.80;;;19.30;90.20;;;;;;4937888;29;20040;-64
2022/05/12 12:17:56;;;;;;;7.65;3.05;;;18.90;90.80;;;;;;4928331;29;20103;-65
2022/05/12 12:20:22;;;;;;;5.50;2.72;;;18.60;91.20;;;;;;4941828;28;20406;-65
2022/05/12 12:22:50;;;;;;;5.07;2.90;;;18.80;91.40;;;;;;4937360;29;20031;-65
2022/05/12 12:25:38;;;;;;;2.92;1.90;;;18.70;90.10;;;;;;4910924;29;20036;-65
2022/05/12 12:28:25;;;;;;;5.00;2.60;;;18.90;88.50;;;;;;4924341;29;20073;-65
2022/05/12 12:30:51;;;;;;;4.95;2.80;;;18.70;83.50;;;;;;4932210;29;20098;-65
2022/05/12 12:33:37;;;;;;;7.40;2.50;;;18.40;85.60;;;;;;4929443;29;20044;-65
2022/05/12 12:36:16;;;;;;;5.30;2.88;;;18.20;84.40;;;;;;4922444;29;20035;-65
2022/05/12 12:39:06;;;;;;;6.47;2.92;;;18.30;88.40;;;;;;4909074;29;20482;-64
2022/05/12 12:41:34;;;;;;;4.82;2.47;;;18.20;85.90;;;;;;4929886;29;20117;-65
2022/05/12 12:44:19;;;;;;;6.55;2.70;;;18.40;90.00;;;;;;4933594;29;20043;-65
2022/05/12 12:47:11;;;;;;;6.32;2.50;;;18.60;88.60;;;;;;4943166;29;20517;-65
2022/05/12 12:49:49;;;;;;;4.80;2.10;;;18.90;85.00;;;;;;4916325;29;20036;-64
2022/05/12 12:52:16;;;;;;;3.83;2.10;;;18.90;77.00;;;;;;4924317;28;20051;-64
2022/05/12 12:57:39;;;;;;;5.05;2.45;;;19.30;76.30;;;;;;4943034;29;20482;-63
2022/05/12 13:00:09;;;;;;;4.70;2.17;;;19.70;74.60;;;;;;4927879;29;20460;-63
2022/05/12 13:02:42;;;;;;;4.10;1.90;;;19.60;75.20;;;;;;4943411;28;20519;-62
2022/05/12 13:05:12;;;;;;;4.95;2.40;;;19.80;73.80;;;;;;4946351;28;20039;-62
2022/05/12 13:07:40;;;;;;;5.18;2.47;;;19.90;76.60;;;;;;4932003;28;20044;-62
2022/05/12 13:10:17;;;;;;;5.60;2.17;;;19.90;75.70;;;;;;4937509;28;20051;-62
2022/05/12 13:12:57;;;;;;;5.70;2.20;;;20.00;68.80;;;;;;4933587;29;20031;-67
2022/05/12 13:15:23;;;;;;;4.22;1.80;;;19.80;70.30;;;;;;4931021;28;20027;-63
2022/05/12 13:17:51;;;;;;;6.68;2.65;;;19.50;73.40;;;;;;4944027;29;20051;-64
2022/05/12 13:20:21;;;;;;;6.57;2.20;;;19.70;72.20;;;;;;4956231;28;20122;-64
2022/05/12 13:22:59;;;;;;;4.90;2.40;;;19.80;73.00;;;;;;4947647;28;20395;-62
2022/05/12 13:25:29;;;;;;;4.90;2.58;;;19.80;70.00;;;;;;4937832;29;20047;-62
2022/05/12 13:27:55;;;;;;;10.45;2.70;;;19.70;70.00;;;;;;4953620;29;20051;-62
2022/05/12 13:30:33;;;;;;;6.65;2.45;;;19.90;71.20;;;;;;4949792;28;20062;-62